sensor_id;sensor_type;location;lat;lon;timestamp;P1;durP1;ratioP1;P2;durP2;ratioP2
69305;SDS011;56427;51.580;4.656;2023-03-26T00:01:19;41.78;;;5.68;;
69305;SDS011;56427;51.580;4.656;2023-03-26T00:03:48;38.95;;;6.07;;
69305;SDS011;56427;51.580;4.656;2023-03-26T00:06:24;44.70;;;6.20;;
69305;SDS011;56427;51.580;4.656;2023-03-26T00:08:54;41.75;;;6.55;;
69305;SDS011;56427;51.580;4.656;2023-03-26T00:11:21;40.67;;;4.68;;
69305;SDS011;56427;51.580;4.656;2023-03-26T00:13:48;33.10;;;5.00;;
69305;SDS011;56427;51.580;4.656;2023-03-26T00:16:15;38.43;;;5.37;;
69305;SDS011;56427;51.580;4.656;2023-03-26T00:18:43;45.67;;;5.38;;
69305;SDS011;56427;51.580;4.656;2023-03-26T00:21:12;35.60;;;5.07;;
69305;SDS011;56427;51.580;4.656;2023-03-26T00:23:40;42.40;;;6.10;;
69305;SDS011;56427;51.580;4.656;2023-03-26T00:26:05;37.45;;;4.95;;
69305;SDS011;56427;51.580;4.656;2023-03-26T00:28:35;45.25;;;7.22;;
69305;SDS011;56427;51.580;4.656;2023-03-26T00:31:05;35.72;;;5.55;;
69305;SDS011;56427;51.580;4.656;2023-03-26T00:33:32;39.83;;;4.55;;
69305;SDS011;56427;51.580;4.656;2023-03-26T00:36:02;37.17;;;4.95;;
69305;SDS011;56427;51.580;4.656;2023-03-26T00:38:30;41.05;;;4.80;;
69305;SDS011;56427;51.580;4.656;2023-03-26T00:40:58;40.78;;;5.15;;
69305;SDS011;56427;51.580;4.656;2023-03-26T00:43:30;35.28;;;5.10;;
69305;SDS011;56427;51.580;4.656;2023-03-26T00:45:57;49.58;;;6.90;;
69305;SDS011;56427;51.580;4.656;2023-03-26T00:48:23;39.40;;;5.65;;
69305;SDS011;56427;51.580;4.656;2023-03-26T00:50:49;47.53;;;6.25;;
69305;SDS011;56427;51.580;4.656;2023-03-26T00:53:15;37.17;;;4.97;;
69305;SDS011;56427;51.580;4.656;2023-03-26T00:55:42;38.42;;;5.10;;
69305;SDS011;56427;51.580;4.656;2023-03-26T00:58:09;36.90;;;4.80;;
69305;SDS011;56427;51.580;4.656;2023-03-26T01:00:36;42.58;;;4.80;;
69305;SDS011;56427;51.580;4.656;2023-03-26T01:03:08;37.40;;;4.82;;
69305;SDS011;56427;51.580;4.656;2023-03-26T01:10:46;42.33;;;5.27;;
69305;SDS011;56427;51.580;4.656;2023-03-26T01:13:19;37.22;;;4.40;;
69305;SDS011;56427;51.580;4.656;2023-03-26T01:15:46;34.60;;;5.03;;
69305;SDS011;56427;51.580;4.656;2023-03-26T01:18:16;38.65;;;4.40;;
69305;SDS011;56427;51.580;4.656;2023-03-26T01:20:43;36.90;;;4.70;;
69305;SDS011;56427;51.580;4.656;2023-03-26T01:23:11;29.20;;;4.80;;
69305;SDS011;56427;51.580;4.656;2023-03-26T01:25:40;33.13;;;4.53;;
69305;SDS011;56427;51.580;4.656;2023-03-26T01:28:11;37.08;;;4.78;;
69305;SDS011;56427;51.580;4.656;2023-03-26T01:30:42;31.67;;;4.90;;
69305;SDS011;56427;51.580;4.656;2023-03-26T01:41:50;30.60;;;4.90;;
69305;SDS011;56427;51.580;4.656;2023-03-26T01:44:37;34.85;;;4.68;;
69305;SDS011;56427;51.580;4.656;2023-03-26T01:47:09;42.72;;;5.30;;
69305;SDS011;56427;51.580;4.656;2023-03-26T01:49:37;35.40;;;5.50;;
69305;SDS011;56427;51.580;4.656;2023-03-26T01:52:05;40.53;;;5.10;;
69305;SDS011;56427;51.580;4.656;2023-03-26T01:54:36;44.65;;;6.90;;
69305;SDS011;56427;51.580;4.656;2023-03-26T02:05:24;35.40;;;4.85;;
69305;SDS011;56427;51.580;4.656;2023-03-26T02:10:27;37.88;;;5.07;;
69305;SDS011;56427;51.580;4.656;2023-03-26T02:12:54;50.97;;;6.05;;
69305;SDS011;56427;51.580;4.656;2023-03-26T02:15:22;40.90;;;5.80;;
69305;SDS011;56427;51.580;4.656;2023-03-26T02:17:47;34.72;;;5.07;;
69305;SDS011;56427;51.580;4.656;2023-03-26T02:20:14;47.57;;;5.80;;
69305;SDS011;56427;51.580;4.656;2023-03-26T02:22:42;32.08;;;5.40;;
69305;SDS011;56427;51.580;4.656;2023-03-26T02:25:14;34.28;;;6.22;;
69305;SDS011;56427;51.580;4.656;2023-03-26T02:27:41;39.10;;;5.63;;
69305;SDS011;56427;51.580;4.656;2023-03-26T02:30:09;31.23;;;5.65;;
69305;SDS011;56427;51.580;4.656;2023-03-26T02:32:36;36.93;;;5.57;;
69305;SDS011;56427;51.580;4.656;2023-03-26T02:35:03;30.92;;;4.80;;
69305;SDS011;56427;51.580;4.656;2023-03-26T02:37:29;28.40;;;5.30;;
69305;SDS011;56427;51.580;4.656;2023-03-26T02:39:58;25.73;;;5.05;;
69305;SDS011;56427;51.580;4.656;2023-03-26T02:42:23;31.73;;;4.68;;
69305;SDS011;56427;51.580;4.656;2023-03-26T02:44:49;28.70;;;4.97;;
69305;SDS011;56427;51.580;4.656;2023-03-26T02:47:14;46.10;;;6.20;;
69305;SDS011;56427;51.580;4.656;2023-03-26T02:49:40;40.07;;;5.17;;
69305;SDS011;56427;51.580;4.656;2023-03-26T02:52:05;38.80;;;5.63;;
69305;SDS011;56427;51.580;4.656;2023-03-26T02:54:33;29.75;;;4.60;;
69305;SDS011;56427;51.580;4.656;2023-03-26T02:57:00;30.00;;;4.32;;
69305;SDS011;56427;51.580;4.656;2023-03-26T02:59:25;29.33;;;4.20;;
69305;SDS011;56427;51.580;4.656;2023-03-26T03:01:51;33.95;;;5.15;;
69305;SDS011;56427;51.580;4.656;2023-03-26T03:04:17;32.78;;;5.32;;
69305;SDS011;56427;51.580;4.656;2023-03-26T03:06:43;32.42;;;4.13;;
69305;SDS011;56427;51.580;4.656;2023-03-26T03:09:09;29.47;;;4.27;;
69305;SDS011;56427;51.580;4.656;2023-03-26T03:11:36;24.85;;;3.72;;
69305;SDS011;56427;51.580;4.656;2023-03-26T03:14:02;25.30;;;4.65;;
69305;SDS011;56427;51.580;4.656;2023-03-26T03:16:29;36.20;;;3.77;;
69305;SDS011;56427;51.580;4.656;2023-03-26T03:18:55;23.55;;;4.05;;
69305;SDS011;56427;51.580;4.656;2023-03-26T03:21:30;26.05;;;4.38;;
69305;SDS011;56427;51.580;4.656;2023-03-26T03:23:55;29.10;;;3.90;;
69305;SDS011;56427;51.580;4.656;2023-03-26T03:26:22;25.77;;;3.20;;
69305;SDS011;56427;51.580;4.656;2023-03-26T03:28:51;26.88;;;3.85;;
69305;SDS011;56427;51.580;4.656;2023-03-26T03:31:18;27.88;;;3.70;;
69305;SDS011;56427;51.580;4.656;2023-03-26T03:33:44;26.67;;;4.20;;
69305;SDS011;56427;51.580;4.656;2023-03-26T03:36:10;28.50;;;3.83;;
69305;SDS011;56427;51.580;4.656;2023-03-26T03:38:37;26.05;;;3.95;;
69305;SDS011;56427;51.580;4.656;2023-03-26T03:41:04;28.90;;;4.10;;
69305;SDS011;56427;51.580;4.656;2023-03-26T03:43:30;26.17;;;3.80;;
69305;SDS011;56427;51.580;4.656;2023-03-26T03:45:56;27.53;;;3.67;;
69305;SDS011;56427;51.580;4.656;2023-03-26T03:48:23;26.20;;;4.10;;
69305;SDS011;56427;51.580;4.656;2023-03-26T03:50:48;24.83;;;3.80;;
69305;SDS011;56427;51.580;4.656;2023-03-26T03:53:13;23.42;;;3.72;;
69305;SDS011;56427;51.580;4.656;2023-03-26T03:55:40;28.40;;;4.13;;
69305;SDS011;56427;51.580;4.656;2023-03-26T03:58:06;33.65;;;3.50;;
69305;SDS011;56427;51.580;4.656;2023-03-26T04:00:33;19.35;;;3.65;;
69305;SDS011;56427;51.580;4.656;2023-03-26T04:03:02;19.23;;;3.75;;
69305;SDS011;56427;51.580;4.656;2023-03-26T04:05:30;23.45;;;4.13;;
69305;SDS011;56427;51.580;4.656;2023-03-26T04:07:56;19.10;;;3.07;;
69305;SDS011;56427;51.580;4.656;2023-03-26T04:10:21;19.27;;;3.58;;
69305;SDS011;56427;51.580;4.656;2023-03-26T04:12:47;32.40;;;4.17;;
69305;SDS011;56427;51.580;4.656;2023-03-26T04:15:13;19.23;;;4.18;;
69305;SDS011;56427;51.580;4.656;2023-03-26T04:17:38;21.67;;;3.58;;
69305;SDS011;56427;51.580;4.656;2023-03-26T04:20:06;26.83;;;3.95;;
69305;SDS011;56427;51.580;4.656;2023-03-26T04:22:34;25.13;;;3.70;;
69305;SDS011;56427;51.580;4.656;2023-03-26T04:25:00;26.35;;;4.30;;
69305;SDS011;56427;51.580;4.656;2023-03-26T04:27:28;23.75;;;4.55;;
69305;SDS011;56427;51.580;4.656;2023-03-26T04:29:56;20.35;;;3.40;;
69305;SDS011;56427;51.580;4.656;2023-03-26T04:32:24;19.95;;;3.88;;
69305;SDS011;56427;51.580;4.656;2023-03-26T04:34:53;21.63;;;3.83;;
69305;SDS011;56427;51.580;4.656;2023-03-26T04:37:26;21.23;;;3.72;;
69305;SDS011;56427;51.580;4.656;2023-03-26T04:40:01;18.13;;;3.83;;
69305;SDS011;56427;51.580;4.656;2023-03-26T04:42:35;22.73;;;3.50;;
69305;SDS011;56427;51.580;4.656;2023-03-26T04:45:02;20.60;;;3.10;;
69305;SDS011;56427;51.580;4.656;2023-03-26T04:47:31;14.95;;;3.08;;
69305;SDS011;56427;51.580;4.656;2023-03-26T04:50:00;18.15;;;3.33;;
69305;SDS011;56427;51.580;4.656;2023-03-26T04:52:26;21.63;;;4.25;;
69305;SDS011;56427;51.580;4.656;2023-03-26T04:54:52;20.17;;;3.70;;
69305;SDS011;56427;51.580;4.656;2023-03-26T04:59:56;22.17;;;3.78;;
69305;SDS011;56427;51.580;4.656;2023-03-26T05:02:22;15.93;;;2.90;;
69305;SDS011;56427;51.580;4.656;2023-03-26T05:04:48;20.67;;;3.63;;
69305;SDS011;56427;51.580;4.656;2023-03-26T05:07:18;22.02;;;4.82;;
69305;SDS011;56427;51.580;4.656;2023-03-26T05:09:46;22.23;;;5.05;;
69305;SDS011;56427;51.580;4.656;2023-03-26T05:12:11;30.83;;;5.20;;
69305;SDS011;56427;51.580;4.656;2023-03-26T05:14:38;28.92;;;5.22;;
69305;SDS011;56427;51.580;4.656;2023-03-26T05:17:03;21.33;;;5.20;;
69305;SDS011;56427;51.580;4.656;2023-03-26T05:19:34;28.30;;;5.65;;
69305;SDS011;56427;51.580;4.656;2023-03-26T05:22:00;19.95;;;3.90;;
69305;SDS011;56427;51.580;4.656;2023-03-26T05:24:26;20.73;;;3.55;;
69305;SDS011;56427;51.580;4.656;2023-03-26T05:26:52;19.55;;;3.90;;
69305;SDS011;56427;51.580;4.656;2023-03-26T05:29:18;18.53;;;3.90;;
69305;SDS011;56427;51.580;4.656;2023-03-26T05:31:46;13.55;;;3.00;;
69305;SDS011;56427;51.580;4.656;2023-03-26T05:34:12;12.63;;;2.53;;
69305;SDS011;56427;51.580;4.656;2023-03-26T05:36:38;14.13;;;2.55;;
69305;SDS011;56427;51.580;4.656;2023-03-26T05:39:04;9.10;;;2.22;;
69305;SDS011;56427;51.580;4.656;2023-03-26T05:41:30;14.55;;;1.80;;
69305;SDS011;56427;51.580;4.656;2023-03-26T05:43:55;7.70;;;1.50;;
69305;SDS011;56427;51.580;4.656;2023-03-26T05:46:20;6.27;;;1.30;;
69305;SDS011;56427;51.580;4.656;2023-03-26T05:48:47;6.68;;;1.55;;
69305;SDS011;56427;51.580;4.656;2023-03-26T05:51:13;5.05;;;1.20;;
69305;SDS011;56427;51.580;4.656;2023-03-26T05:53:39;5.73;;;1.80;;
69305;SDS011;56427;51.580;4.656;2023-03-26T05:56:05;7.68;;;1.50;;
69305;SDS011;56427;51.580;4.656;2023-03-26T05:58:34;5.32;;;1.48;;
69305;SDS011;56427;51.580;4.656;2023-03-26T06:01:07;4.95;;;1.25;;
69305;SDS011;56427;51.580;4.656;2023-03-26T06:03:35;4.40;;;1.02;;
69305;SDS011;56427;51.580;4.656;2023-03-26T06:06:07;5.63;;;1.23;;
69305;SDS011;56427;51.580;4.656;2023-03-26T06:08:33;7.72;;;1.50;;
69305;SDS011;56427;51.580;4.656;2023-03-26T06:11:02;4.83;;;1.17;;
69305;SDS011;56427;51.580;4.656;2023-03-26T06:13:29;7.35;;;1.10;;
69305;SDS011;56427;51.580;4.656;2023-03-26T06:15:55;6.10;;;1.67;;
69305;SDS011;56427;51.580;4.656;2023-03-26T06:18:22;5.03;;;1.27;;
69305;SDS011;56427;51.580;4.656;2023-03-26T06:20:48;7.75;;;1.95;;
69305;SDS011;56427;51.580;4.656;2023-03-26T06:23:15;6.00;;;1.27;;
69305;SDS011;56427;51.580;4.656;2023-03-26T06:25:40;7.47;;;1.20;;
69305;SDS011;56427;51.580;4.656;2023-03-26T06:28:08;4.57;;;1.40;;
69305;SDS011;56427;51.580;4.656;2023-03-26T06:30:34;15.33;;;2.57;;
69305;SDS011;56427;51.580;4.656;2023-03-26T06:32:59;7.15;;;1.60;;
69305;SDS011;56427;51.580;4.656;2023-03-26T06:35:25;6.83;;;1.80;;
69305;SDS011;56427;51.580;4.656;2023-03-26T06:37:53;6.27;;;1.83;;
69305;SDS011;56427;51.580;4.656;2023-03-26T06:40:18;7.88;;;2.00;;
69305;SDS011;56427;51.580;4.656;2023-03-26T06:42:44;10.90;;;1.87;;
69305;SDS011;56427;51.580;4.656;2023-03-26T06:45:09;10.38;;;1.88;;
69305;SDS011;56427;51.580;4.656;2023-03-26T06:47:35;9.40;;;1.50;;
69305;SDS011;56427;51.580;4.656;2023-03-26T06:50:00;7.63;;;2.33;;
69305;SDS011;56427;51.580;4.656;2023-03-26T06:52:26;10.10;;;4.20;;
69305;SDS011;56427;51.580;4.656;2023-03-26T06:54:52;7.43;;;3.17;;
69305;SDS011;56427;51.580;4.656;2023-03-26T06:57:17;6.47;;;2.03;;
69305;SDS011;56427;51.580;4.656;2023-03-26T06:59:43;7.77;;;1.73;;
69305;SDS011;56427;51.580;4.656;2023-03-26T07:02:09;7.95;;;2.13;;
69305;SDS011;56427;51.580;4.656;2023-03-26T07:04:35;8.67;;;2.00;;
69305;SDS011;56427;51.580;4.656;2023-03-26T07:07:01;9.45;;;1.92;;
69305;SDS011;56427;51.580;4.656;2023-03-26T07:09:27;5.93;;;1.77;;
69305;SDS011;56427;51.580;4.656;2023-03-26T07:11:54;7.43;;;1.90;;
69305;SDS011;56427;51.580;4.656;2023-03-26T07:14:21;6.78;;;1.60;;
69305;SDS011;56427;51.580;4.656;2023-03-26T07:16:48;8.52;;;1.77;;
69305;SDS011;56427;51.580;4.656;2023-03-26T07:19:14;9.32;;;1.75;;
69305;SDS011;56427;51.580;4.656;2023-03-26T07:21:39;7.73;;;2.03;;
69305;SDS011;56427;51.580;4.656;2023-03-26T07:24:07;8.57;;;2.13;;
69305;SDS011;56427;51.580;4.656;2023-03-26T07:45:01;11.05;;;3.53;;
69305;SDS011;56427;51.580;4.656;2023-03-26T07:47:33;12.73;;;3.78;;
69305;SDS011;56427;51.580;4.656;2023-03-26T07:49:59;10.68;;;3.67;;
69305;SDS011;56427;51.580;4.656;2023-03-26T07:52:25;17.50;;;4.53;;
69305;SDS011;56427;51.580;4.656;2023-03-26T07:54:51;13.40;;;4.30;;
69305;SDS011;56427;51.580;4.656;2023-03-26T07:57:30;15.40;;;3.83;;
69305;SDS011;56427;51.580;4.656;2023-03-26T08:05:36;16.83;;;6.03;;
69305;SDS011;56427;51.580;4.656;2023-03-26T08:10:58;16.48;;;5.95;;
69305;SDS011;56427;51.580;4.656;2023-03-26T08:16:42;19.45;;;6.25;;
69305;SDS011;56427;51.580;4.656;2023-03-26T08:27:42;22.23;;;5.75;;
69305;SDS011;56427;51.580;4.656;2023-03-26T08:30:24;17.17;;;5.47;;
69305;SDS011;56427;51.580;4.656;2023-03-26T08:33:07;22.65;;;5.97;;
69305;SDS011;56427;51.580;4.656;2023-03-26T08:35:36;19.08;;;5.70;;
69305;SDS011;56427;51.580;4.656;2023-03-26T08:38:09;17.33;;;5.60;;
69305;SDS011;56427;51.580;4.656;2023-03-26T08:52:01;21.60;;;5.97;;
69305;SDS011;56427;51.580;4.656;2023-03-26T08:54:46;17.88;;;5.70;;
69305;SDS011;56427;51.580;4.656;2023-03-26T09:00:15;18.10;;;5.00;;
69305;SDS011;56427;51.580;4.656;2023-03-26T09:03:06;17.80;;;4.85;;
69305;SDS011;56427;51.580;4.656;2023-03-26T09:17:04;17.42;;;4.75;;
69305;SDS011;56427;51.580;4.656;2023-03-26T09:22:58;14.73;;;3.80;;
69305;SDS011;56427;51.580;4.656;2023-03-26T09:38:47;6.57;;;2.10;;
69305;SDS011;56427;51.580;4.656;2023-03-26T09:44:31;11.82;;;2.83;;
69305;SDS011;56427;51.580;4.656;2023-03-26T09:56:19;6.63;;;2.10;;
69305;SDS011;56427;51.580;4.656;2023-03-26T10:07:52;7.05;;;1.90;;
69305;SDS011;56427;51.580;4.656;2023-03-26T10:10:37;5.72;;;1.58;;
69305;SDS011;56427;51.580;4.656;2023-03-26T10:29:30;6.82;;;1.73;;
69305;SDS011;56427;51.580;4.656;2023-03-26T10:37:49;9.27;;;2.30;;
69305;SDS011;56427;51.580;4.656;2023-03-26T10:51:43;4.45;;;1.75;;
69305;SDS011;56427;51.580;4.656;2023-03-26T10:56:48;8.50;;;1.92;;
69305;SDS011;56427;51.580;4.656;2023-03-26T10:59:18;6.60;;;1.80;;
69305;SDS011;56427;51.580;4.656;2023-03-26T11:08:03;8.27;;;2.20;;
69305;SDS011;56427;51.580;4.656;2023-03-26T11:10:52;5.55;;;1.80;;
69305;SDS011;56427;51.580;4.656;2023-03-26T11:18:52;5.40;;;1.73;;
69305;SDS011;56427;51.580;4.656;2023-03-26T11:21:44;5.15;;;1.60;;
69305;SDS011;56427;51.580;4.656;2023-03-26T11:30:09;7.03;;;2.65;;
69305;SDS011;56427;51.580;4.656;2023-03-26T11:32:57;5.82;;;1.98;;
69305;SDS011;56427;51.580;4.656;2023-03-26T11:38:05;6.90;;;2.65;;
69305;SDS011;56427;51.580;4.656;2023-03-26T11:40:46;7.60;;;2.40;;
69305;SDS011;56427;51.580;4.656;2023-03-26T11:43:15;9.95;;;3.70;;
69305;SDS011;56427;51.580;4.656;2023-03-26T11:45:45;8.98;;;3.08;;
69305;SDS011;56427;51.580;4.656;2023-03-26T11:48:18;13.23;;;3.30;;
69305;SDS011;56427;51.580;4.656;2023-03-26T11:50:56;5.80;;;3.08;;
69305;SDS011;56427;51.580;4.656;2023-03-26T11:53:27;10.53;;;3.43;;
69305;SDS011;56427;51.580;4.656;2023-03-26T11:56:07;12.20;;;3.95;;
69305;SDS011;56427;51.580;4.656;2023-03-26T11:58:59;9.10;;;4.13;;
69305;SDS011;56427;51.580;4.656;2023-03-26T12:01:40;10.60;;;4.05;;
69305;SDS011;56427;51.580;4.656;2023-03-26T12:04:12;12.55;;;5.05;;
69305;SDS011;56427;51.580;4.656;2023-03-26T12:06:49;8.87;;;4.80;;
69305;SDS011;56427;51.580;4.656;2023-03-26T12:09:24;10.40;;;4.53;;
69305;SDS011;56427;51.580;4.656;2023-03-26T12:11:51;9.18;;;5.55;;
69305;SDS011;56427;51.580;4.656;2023-03-26T12:14:24;12.30;;;5.60;;
69305;SDS011;56427;51.580;4.656;2023-03-26T12:19:23;7.80;;;4.00;;
69305;SDS011;56427;51.580;4.656;2023-03-26T12:21:51;8.70;;;4.28;;
69305;SDS011;56427;51.580;4.656;2023-03-26T12:24:30;9.73;;;3.38;;
69305;SDS011;56427;51.580;4.656;2023-03-26T12:26:59;8.57;;;3.67;;
69305;SDS011;56427;51.580;4.656;2023-03-26T12:29:30;8.43;;;2.70;;
69305;SDS011;56427;51.580;4.656;2023-03-26T12:32:05;7.50;;;2.13;;
69305;SDS011;56427;51.580;4.656;2023-03-26T12:34:37;5.93;;;1.85;;
69305;SDS011;56427;51.580;4.656;2023-03-26T12:37:04;5.63;;;1.80;;
69305;SDS011;56427;51.580;4.656;2023-03-26T12:42:27;5.53;;;1.85;;
69305;SDS011;56427;51.580;4.656;2023-03-26T12:44:56;10.60;;;1.90;;
69305;SDS011;56427;51.580;4.656;2023-03-26T12:47:26;4.50;;;1.33;;
69305;SDS011;56427;51.580;4.656;2023-03-26T12:49:54;6.95;;;1.90;;
69305;SDS011;56427;51.580;4.656;2023-03-26T12:52:25;5.95;;;2.38;;
69305;SDS011;56427;51.580;4.656;2023-03-26T13:06:08;9.20;;;2.00;;
69305;SDS011;56427;51.580;4.656;2023-03-26T13:22:20;19.50;;;4.82;;
69305;SDS011;56427;51.580;4.656;2023-03-26T13:33:19;11.00;;;3.83;;
69305;SDS011;56427;51.580;4.656;2023-03-26T13:36:17;15.18;;;4.13;;
69305;SDS011;56427;51.580;4.656;2023-03-26T13:47:15;14.32;;;4.18;;
69305;SDS011;56427;51.580;4.656;2023-03-26T13:49:48;18.90;;;5.10;;
69305;SDS011;56427;51.580;4.656;2023-03-26T13:52:20;13.73;;;3.83;;
69305;SDS011;56427;51.580;4.656;2023-03-26T13:55:27;16.08;;;3.67;;
69305;SDS011;56427;51.580;4.656;2023-03-26T13:58:01;13.75;;;3.83;;
69305;SDS011;56427;51.580;4.656;2023-03-26T14:00:57;12.75;;;3.15;;
69305;SDS011;56427;51.580;4.656;2023-03-26T14:03:30;17.08;;;5.07;;
69305;SDS011;56427;51.580;4.656;2023-03-26T14:12:15;15.57;;;3.70;;
69305;SDS011;56427;51.580;4.656;2023-03-26T14:17:27;14.00;;;3.85;;
69305;SDS011;56427;51.580;4.656;2023-03-26T14:25:37;11.30;;;3.20;;
69305;SDS011;56427;51.580;4.656;2023-03-26T14:39:29;12.43;;;2.92;;
69305;SDS011;56427;51.580;4.656;2023-03-26T14:47:58;18.70;;;3.43;;
69305;SDS011;56427;51.580;4.656;2023-03-26T14:53:26;14.05;;;2.72;;
69305;SDS011;56427;51.580;4.656;2023-03-26T15:12:12;11.07;;;1.92;;
69305;SDS011;56427;51.580;4.656;2023-03-26T15:15:03;12.52;;;2.88;;
69305;SDS011;56427;51.580;4.656;2023-03-26T15:20:19;11.75;;;2.28;;
69305;SDS011;56427;51.580;4.656;2023-03-26T15:45:35;8.27;;;1.70;;
69305;SDS011;56427;51.580;4.656;2023-03-26T15:50:34;7.38;;;1.70;;
69305;SDS011;56427;51.580;4.656;2023-03-26T15:56:12;9.63;;;1.98;;
69305;SDS011;56427;51.580;4.656;2023-03-26T15:58:55;9.60;;;1.77;;
69305;SDS011;56427;51.580;4.656;2023-03-26T16:23:24;6.28;;;1.80;;
69305;SDS011;56427;51.580;4.656;2023-03-26T16:31:29;8.13;;;1.90;;
69305;SDS011;56427;51.580;4.656;2023-03-26T16:36:34;7.60;;;1.58;;
69305;SDS011;56427;51.580;4.656;2023-03-26T16:41:50;8.38;;;1.55;;
69305;SDS011;56427;51.580;4.656;2023-03-26T16:44:25;9.68;;;1.85;;
69305;SDS011;56427;51.580;4.656;2023-03-26T16:47:06;10.38;;;1.92;;
69305;SDS011;56427;51.580;4.656;2023-03-26T16:52:32;9.25;;;1.70;;
69305;SDS011;56427;51.580;4.656;2023-03-26T17:01:03;4.30;;;1.40;;
69305;SDS011;56427;51.580;4.656;2023-03-26T17:03:31;9.85;;;1.60;;
69305;SDS011;56427;51.580;4.656;2023-03-26T17:13:05;10.88;;;1.98;;
69305;SDS011;56427;51.580;4.656;2023-03-26T17:20:54;8.13;;;1.60;;
69305;SDS011;56427;51.580;4.656;2023-03-26T17:32:11;7.10;;;1.60;;
69305;SDS011;56427;51.580;4.656;2023-03-26T17:42:25;9.80;;;1.60;;
69305;SDS011;56427;51.580;4.656;2023-03-26T17:47:37;9.18;;;1.83;;
69305;SDS011;56427;51.580;4.656;2023-03-26T17:52:50;7.25;;;1.90;;
69305;SDS011;56427;51.580;4.656;2023-03-26T17:55:21;5.68;;;1.30;;
69305;SDS011;56427;51.580;4.656;2023-03-26T17:57:57;7.18;;;1.70;;
69305;SDS011;56427;51.580;4.656;2023-03-26T18:00:35;7.57;;;1.88;;
69305;SDS011;56427;51.580;4.656;2023-03-26T18:03:52;10.27;;;2.30;;
69305;SDS011;56427;51.580;4.656;2023-03-26T18:06:09;8.13;;;1.63;;
69305;SDS011;56427;51.580;4.656;2023-03-26T18:09:00;8.50;;;1.70;;
69305;SDS011;56427;51.580;4.656;2023-03-26T18:17:44;10.25;;;2.40;;
69305;SDS011;56427;51.580;4.656;2023-03-26T18:20:18;6.47;;;1.63;;
69305;SDS011;56427;51.580;4.656;2023-03-26T18:22:49;7.25;;;1.70;;
69305;SDS011;56427;51.580;4.656;2023-03-26T18:25:20;6.22;;;1.40;;
69305;SDS011;56427;51.580;4.656;2023-03-26T18:27:56;6.63;;;1.75;;
69305;SDS011;56427;51.580;4.656;2023-03-26T18:30:22;5.70;;;1.60;;
69305;SDS011;56427;51.580;4.656;2023-03-26T18:33:11;6.22;;;1.85;;
69305;SDS011;56427;51.580;4.656;2023-03-26T18:35:40;8.23;;;1.80;;
69305;SDS011;56427;51.580;4.656;2023-03-26T18:38:41;11.25;;;2.67;;
69305;SDS011;56427;51.580;4.656;2023-03-26T18:41:00;16.58;;;1.90;;
69305;SDS011;56427;51.580;4.656;2023-03-26T18:43:25;3.50;;;1.37;;
69305;SDS011;56427;51.580;4.656;2023-03-26T18:45:51;9.93;;;2.00;;
69305;SDS011;56427;51.580;4.656;2023-03-26T18:48:21;7.63;;;1.90;;
69305;SDS011;56427;51.580;4.656;2023-03-26T18:50:52;9.30;;;1.98;;
69305;SDS011;56427;51.580;4.656;2023-03-26T18:53:24;10.60;;;1.90;;
69305;SDS011;56427;51.580;4.656;2023-03-26T18:55:53;8.55;;;1.80;;
69305;SDS011;56427;51.580;4.656;2023-03-26T19:01:07;7.60;;;1.60;;
69305;SDS011;56427;51.580;4.656;2023-03-26T19:03:37;5.85;;;1.60;;
69305;SDS011;56427;51.580;4.656;2023-03-26T19:06:08;9.45;;;2.00;;
69305;SDS011;56427;51.580;4.656;2023-03-26T19:08:36;9.45;;;2.00;;
69305;SDS011;56427;51.580;4.656;2023-03-26T19:11:04;7.70;;;2.10;;
69305;SDS011;56427;51.580;4.656;2023-03-26T19:13:32;7.47;;;1.90;;
69305;SDS011;56427;51.580;4.656;2023-03-26T19:16:00;9.18;;;1.88;;
69305;SDS011;56427;51.580;4.656;2023-03-26T19:18:31;9.38;;;2.28;;
69305;SDS011;56427;51.580;4.656;2023-03-26T19:20:58;11.17;;;2.23;;
69305;SDS011;56427;51.580;4.656;2023-03-26T19:23:29;10.68;;;2.10;;
69305;SDS011;56427;51.580;4.656;2023-03-26T19:25:59;6.32;;;1.48;;
69305;SDS011;56427;51.580;4.656;2023-03-26T19:31:09;10.00;;;2.17;;
69305;SDS011;56427;51.580;4.656;2023-03-26T19:33:43;5.50;;;1.67;;
69305;SDS011;56427;51.580;4.656;2023-03-26T19:38:42;14.93;;;2.05;;
69305;SDS011;56427;51.580;4.656;2023-03-26T19:41:20;7.22;;;2.05;;
69305;SDS011;56427;51.580;4.656;2023-03-26T19:43:52;9.57;;;1.80;;
69305;SDS011;56427;51.580;4.656;2023-03-26T19:46:22;12.43;;;2.47;;
69305;SDS011;56427;51.580;4.656;2023-03-26T19:48:50;11.10;;;2.15;;
69305;SDS011;56427;51.580;4.656;2023-03-26T19:51:19;10.10;;;1.88;;
69305;SDS011;56427;51.580;4.656;2023-03-26T19:53:52;6.07;;;1.63;;
69305;SDS011;56427;51.580;4.656;2023-03-26T19:56:20;10.68;;;2.25;;
69305;SDS011;56427;51.580;4.656;2023-03-26T19:58:46;15.13;;;1.67;;
69305;SDS011;56427;51.580;4.656;2023-03-26T20:03:48;13.88;;;2.25;;
69305;SDS011;56427;51.580;4.656;2023-03-26T20:06:17;10.98;;;1.88;;
69305;SDS011;56427;51.580;4.656;2023-03-26T20:08:44;11.32;;;2.63;;
69305;SDS011;56427;51.580;4.656;2023-03-26T20:11:15;10.68;;;1.85;;
69305;SDS011;56427;51.580;4.656;2023-03-26T20:13:42;9.60;;;1.55;;
69305;SDS011;56427;51.580;4.656;2023-03-26T20:16:10;8.03;;;1.80;;
69305;SDS011;56427;51.580;4.656;2023-03-26T20:18:37;8.32;;;1.67;;
69305;SDS011;56427;51.580;4.656;2023-03-26T20:21:11;11.43;;;1.90;;
69305;SDS011;56427;51.580;4.656;2023-03-26T20:23:40;9.05;;;1.20;;
69305;SDS011;56427;51.580;4.656;2023-03-26T20:26:11;7.80;;;1.42;;
69305;SDS011;56427;51.580;4.656;2023-03-26T20:28:37;10.40;;;1.97;;
69305;SDS011;56427;51.580;4.656;2023-03-26T20:31:03;15.32;;;2.33;;
69305;SDS011;56427;51.580;4.656;2023-03-26T20:33:29;10.57;;;1.47;;
69305;SDS011;56427;51.580;4.656;2023-03-26T20:35:55;8.43;;;1.70;;
69305;SDS011;56427;51.580;4.656;2023-03-26T20:38:22;14.07;;;2.33;;
69305;SDS011;56427;51.580;4.656;2023-03-26T20:40:50;6.82;;;1.50;;
69305;SDS011;56427;51.580;4.656;2023-03-26T20:43:17;11.98;;;1.45;;
69305;SDS011;56427;51.580;4.656;2023-03-26T20:45:43;11.40;;;1.40;;
69305;SDS011;56427;51.580;4.656;2023-03-26T20:48:10;8.02;;;1.88;;
69305;SDS011;56427;51.580;4.656;2023-03-26T20:50:36;10.50;;;1.77;;
69305;SDS011;56427;51.580;4.656;2023-03-26T20:53:14;10.20;;;1.70;;
69305;SDS011;56427;51.580;4.656;2023-03-26T20:55:43;8.93;;;1.92;;
69305;SDS011;56427;51.580;4.656;2023-03-26T20:58:13;8.27;;;1.52;;
69305;SDS011;56427;51.580;4.656;2023-03-26T21:00:41;7.82;;;1.35;;
69305;SDS011;56427;51.580;4.656;2023-03-26T21:03:08;7.73;;;1.50;;
69305;SDS011;56427;51.580;4.656;2023-03-26T21:05:37;8.15;;;1.50;;
69305;SDS011;56427;51.580;4.656;2023-03-26T21:08:04;8.85;;;1.40;;
69305;SDS011;56427;51.580;4.656;2023-03-26T21:10:29;5.82;;;0.90;;
69305;SDS011;56427;51.580;4.656;2023-03-26T21:12:56;9.38;;;1.52;;
69305;SDS011;56427;51.580;4.656;2023-03-26T21:15:32;14.43;;;2.30;;
69305;SDS011;56427;51.580;4.656;2023-03-26T21:17:57;6.37;;;1.47;;
69305;SDS011;56427;51.580;4.656;2023-03-26T21:20:24;12.60;;;2.25;;
69305;SDS011;56427;51.580;4.656;2023-03-26T21:26:25;12.10;;;1.70;;
69305;SDS011;56427;51.580;4.656;2023-03-26T21:28:56;9.38;;;1.33;;
69305;SDS011;56427;51.580;4.656;2023-03-26T21:31:23;7.25;;;1.40;;
69305;SDS011;56427;51.580;4.656;2023-03-26T21:33:50;8.00;;;1.35;;
69305;SDS011;56427;51.580;4.656;2023-03-26T21:36:16;7.57;;;1.43;;
69305;SDS011;56427;51.580;4.656;2023-03-26T21:38:43;8.10;;;1.38;;
69305;SDS011;56427;51.580;4.656;2023-03-26T21:41:24;5.80;;;1.40;;
69305;SDS011;56427;51.580;4.656;2023-03-26T21:43:59;11.02;;;1.60;;
69305;SDS011;56427;51.580;4.656;2023-03-26T21:46:25;4.70;;;1.33;;
69305;SDS011;56427;51.580;4.656;2023-03-26T21:48:51;9.65;;;1.50;;